Milenium Dos — ECCX — position and weather

sailwx.info

Track history (hours):
 
Tides and Currents Weather Stations Pressure Air Temp Water Temp Dewpoint Dewpoint Depression Visibility Wind Speed Wind Dir Waves Ship Positions

Milenium Dos

Last reported at 2017-Sep-20 21:00 UTC. Time now 2017-Sep-20 22:11 UTC.
Position N 36°05' W 005°22'.

Length 97 m; draft 2.7 m.

Type: Passenger vessel. MMSI: 224239000.

Date/timePositionNaut miles runAvg speedWind from/ knotsBaromVisibWave heightAir tempDewpointWater temp
2017-Sep-20 21:00N 36°05' W 005°22'1122.8
2017-Sep-20 20:30N 35°54' W 005°19'0 0.0
2017-Sep-20 20:00N 35°54' W 005°19'918.8
2017-Sep-20 19:30N 36°03' W 005°23'3 1.5
2017-Sep-20 17:39N 36°00' W 005°21'427.8
2017-Sep-20 17:31N 35°57' W 005°20'3 5.9
2017-Sep-20 17:00N 35°54' W 005°19'0 0.1
2017-Sep-20 16:30N 35°54' W 005°19'0 0.1
2017-Sep-20 14:00N 35°54' W 005°19'0 0.4
2017-Sep-20 13:31N 35°54' W 005°19'9 4.3
2017-Sep-20 11:32N 36°02' W 005°20'126.5
2017-Sep-20 11:30N 36°01' W 005°20'815.8
2017-Sep-20 11:01N 35°54' W 005°19'0 0.3
2017-Sep-20 10:30N 35°54' W 005°19'6 2.5
2017-Sep-20 08:01N 35°60' W 005°20'027.7
2017-Sep-20 08:00N 35°60' W 005°20'612.4
2017-Sep-20 07:30N 35°54' W 005°19'0 0.0
2017-Sep-20 07:00N 35°54' W 005°19'815.5
2017-Sep-20 06:30N 36°01' W 005°21'9 0.9
2017-Sep-19 21:10N 36°09' W 005°26'725.5
2017-Sep-19 20:53N 36°03' W 005°21'924.7
2017-Sep-19 20:31N 35°54' W 005°19'0 0.0
2017-Sep-19 20:00N 35°54' W 005°19'1122.1
2017-Sep-19 19:30N 36°04' W 005°23'4 3.5
2017-Sep-19 18:15N 36°08' W 005°26'2 7.5
2017-Sep-19 18:01N 36°08' W 005°24'1326.5
2017-Sep-19 17:31N 35°55' W 005°19'2 3.2
2017-Sep-19 17:00N 35°54' W 005°19'0 0.0
2017-Sep-19 16:30N 35°54' W 005°19'918.7
2017-Sep-19 16:00N 36°03' W 005°22'3 2.2
2017-Sep-19 14:38N 36°06' W 005°23'527.8
2017-Sep-19 14:28N 36°01' W 005°21'816.4
2017-Sep-19 14:00N 35°54' W 005°19'0 0.4
2017-Sep-19 13:31N 35°54' W 005°19'10 5.5
2017-Sep-19 11:39N 36°04' W 005°22'427.3
2017-Sep-19 11:30N 35°60' W 005°21'612.9
2017-Sep-19 11:00N 35°54' W 005°19'1 2.7
2017-Sep-19 10:30N 35°55' W 005°18'6 2.6
2017-Sep-19 08:00N 36°01' W 005°21'714.8
2017-Sep-19 07:30N 35°54' W 005°19'0 0.0
2017-Sep-19 07:00N 35°54' W 005°19'613.0
2017-Sep-19 06:30N 36°00' W 005°20'3 0.3
2017-Sep-18 21:05N 36°03' W 005°22'233.3
2017-Sep-18 21:01N 36°00' W 005°21'713.3
2017-Sep-18 20:30N 35°54' W 005°19'0 0.1
2017-Sep-18 20:01N 35°54' W 005°19'8 3.5
2017-Sep-18 17:45N 36°01' W 005°21'726.4
2017-Sep-18 17:31N 35°55' W 005°19'1 3.0
2017-Sep-18 17:01N 35°54' W 005°19'0 0.0
2017-Sep-18 16:31N 35°54' W 005°19'8 4.0
2017-Sep-18 14:30N 36°01' W 005°22'816.6
2017-Sep-18 14:00N 35°54' W 005°19'1 1.2
2017-Sep-18 13:30N 35°54' W 005°19'6 3.3
2017-Sep-18 11:38N 35°60' W 005°21'325.3
2017-Sep-18 11:31N 35°57' W 005°19'3 6.2
2017-Sep-18 11:00N 35°54' W 005°19'1 1.6
2017-Sep-18 10:31N 35°54' W 005°18'6 2.7
2017-Sep-18 08:12N 36°00' W 005°21'525.4
2017-Sep-18 08:01N 35°56' W 005°19'2 4.2
2017-Sep-18 07:30N 35°54' W 005°19'0 0.0
2017-Sep-18 07:00N 35°54' W 005°19'611.1
2017-Sep-18 06:31N 35°59' W 005°20'2 0.2
2017-Sep-17 21:14N 36°01' W 005°21'627.3
2017-Sep-17 21:01N 35°55' W 005°19'1 2.8
2017-Sep-17 20:30N 35°54' W 005°19'0 0.6
2017-Sep-17 20:01N 35°54' W 005°19'8 3.7
2017-Sep-17 17:52N 36°01' W 005°21'821.5
2017-Sep-17 17:30N 35°54' W 005°19'0 0.3
2017-Sep-17 17:00N 35°54' W 005°19'0 0.2
2017-Sep-17 16:31N 35°54' W 005°19'1020.3
2017-Sep-17 16:00N 36°04' W 005°22'6 4.6
2017-Sep-17 14:45N 36°09' W 005°26'922.1
2017-Sep-17 14:21N 36°01' W 005°21'721.4
2017-Sep-17 14:00N 35°54' W 005°19'0 0.3
2017-Sep-17 13:30N 35°54' W 005°19'10 5.0
2017-Sep-17 11:34N 36°03' W 005°23'327.0
2017-Sep-17 11:28N 36°00' W 005°22'714.7
2017-Sep-17 11:00N 35°54' W 005°19'0 0.1
2017-Sep-17 10:30N 35°54' W 005°19'7 2.7
2017-Sep-17 08:00N 36°00' W 005°22'713.6
2017-Sep-17 07:30N 35°54' W 005°19'0 0.0
2017-Sep-17 07:00N 35°54' W 005°19'3 6.5
2017-Sep-17 06:31N 35°57' W 005°19'8 0.9
2017-Sep-16 21:11N 36°04' W 005°23'633.5
2017-Sep-16 21:01N 35°59' W 005°21'510.2
2017-Sep-16 20:30N 35°54' W 005°19'0 0.3
2017-Sep-16 20:00N 35°54' W 005°19'1121.2
2017-Sep-16 19:30N 36°04' W 005°23'1 0.5
2017-Sep-16 17:55N 36°03' W 005°22'1024.4
2017-Sep-16 17:31N 35°54' W 005°19'1 1.2
2017-Sep-16 17:00N 35°54' W 005°19'0 0.0
2017-Sep-16 16:30N 35°54' W 005°19'1019.6
2017-Sep-16 16:00N 36°03' W 005°21'1 0.5
2017-Sep-16 14:36N 36°03' W 005°22'328.5
2017-Sep-16 14:31N 36°01' W 005°22'714.7
2017-Sep-16 14:00N 35°54' W 005°19'0 0.0
2017-Sep-16 13:30N 35°54' W 005°19'1019.3
2017-Sep-16 13:00N 36°03' W 005°23'3 1.8
2017-Sep-16 11:27N 36°00' W 005°21'715.2
2017-Sep-16 11:00N 35°54' W 005°19'0 0.4
2017-Sep-16 10:30N 35°54' W 005°19'7 3.1
2017-Sep-16 08:11N 36°01' W 005°22'526.4
2017-Sep-16 08:01N 35°56' W 005°20'2 4.9
2017-Sep-16 07:30N 35°54' W 005°19'0 0.1
2017-Sep-16 07:00N 35°54' W 005°19'11 1.1
2017-Sep-15 21:04N 36°04' W 005°22'227.7
2017-Sep-15 21:00N 36°03' W 005°21'918.6
2017-Sep-15 20:30N 35°54' W 005°19'0 0.1
2017-Sep-15 20:01N 35°54' W 005°19'1121.2
2017-Sep-15 19:30N 36°04' W 005°22'3 1.5
2017-Sep-15 17:49N 36°01' W 005°22'826.1
2017-Sep-15 17:31N 35°54' W 005°19'1 1.2
2017-Sep-15 17:00N 35°54' W 005°19'2 4.0
2017-Sep-15 16:31N 35°56' W 005°18'5 2.5
2017-Sep-15 14:38N 35°60' W 005°21'325.0
2017-Sep-15 14:31N 35°57' W 005°20'3 7.0
2017-Sep-15 14:00N 35°54' W 005°19'0 0.5
2017-Sep-15 13:31N 35°54' W 005°19'8 4.2
2017-Sep-15 11:41N 36°01' W 005°21'426.1
2017-Sep-15 11:31N 35°57' W 005°20'3 6.5
2017-Sep-15 11:00N 35°54' W 005°19'1 2.3
2017-Sep-15 10:31N 35°55' W 005°18'6 2.3
2017-Sep-15 07:58N 36°00' W 005°21'614.3
2017-Sep-15 07:30N 35°54' W 005°19'0 0.3
2017-Sep-15 07:00N 35°54' W 005°19'7 0.7
2017-Sep-14 21:05N 36°01' W 005°21'227.6
2017-Sep-14 21:00N 35°58' W 005°20'5 9.6
2017-Sep-14 20:30N 35°54' W 005°19'0 0.1
2017-Sep-14 20:01N 35°54' W 005°19'6 2.7
2017-Sep-14 17:45N 35°60' W 005°20'625.1
2017-Sep-14 17:30N 35°54' W 005°19'1 1.2
2017-Sep-14 17:00N 35°54' W 005°19'0 0.2
2017-Sep-14 16:30N 35°54' W 005°19'1221.8
2017-Sep-14 15:59N 36°05' W 005°23'4 2.9
2017-Sep-14 14:27N 36°01' W 005°20'817.2
2017-Sep-14 14:00N 35°54' W 005°19'0 0.0
2017-Sep-14 13:30N 35°54' W 005°19'1610.1
2017-Sep-14 11:56N 36°09' W 005°26'1020.0
2017-Sep-14 11:26N 35°60' W 005°20'614.1
2017-Sep-14 11:00N 35°54' W 005°19'0 0.7
2017-Sep-14 10:31N 35°54' W 005°19'7 2.6
2017-Sep-14 07:55N 36°00' W 005°21'716.5
2017-Sep-14 07:30N 35°54' W 005°19'0 0.0
2017-Sep-14 07:00N 35°54' W 005°19'713.8
2017-Sep-14 06:31N 36°01' W 005°20'1 0.1
2017-Sep-13 21:03N 36°01' W 005°21'127.9
2017-Sep-13 21:01N 36°00' W 005°21'713.5
2017-Sep-13 20:30N 35°54' W 005°19'0 0.4
2017-Sep-13 20:00N 35°54' W 005°19'10 5.1
2017-Sep-13 18:04N 36°03' W 005°23'227.4
2017-Sep-13 18:00N 36°01' W 005°22'815.9
2017-Sep-13 17:30N 35°54' W 005°19'0 0.0
2017-Sep-13 17:00N 35°54' W 005°19'0 0.2
2017-Sep-13 16:31N 35°54' W 005°19'7 3.6
2017-Sep-13 14:28N 36°01' W 005°21'716.3
2017-Sep-13 14:00N 35°54' W 005°19'0 0.5
2017-Sep-13 13:31N 35°54' W 005°19'7 3.4
2017-Sep-13 11:32N 35°60' W 005°22'128.1
2017-Sep-13 11:30N 35°59' W 005°22'611.8
2017-Sep-13 11:00N 35°54' W 005°19'0 0.3
2017-Sep-13 10:31N 35°54' W 005°19'7 2.9
2017-Sep-13 08:02N 36°01' W 005°22'028.1
2017-Sep-13 08:01N 36°00' W 005°22'713.6
2017-Sep-13 07:30N 35°54' W 005°19'0 0.0
2017-Sep-13 07:00N 35°54' W 005°19'816.8
2017-Sep-13 06:30N 36°02' W 005°22'7 1.1
2017-Sep-13 00:10N 36°08' W 005°26'1 0.3
2017-Sep-12 21:24N 36°08' W 005°26'919.9
2017-Sep-12 20:57N 36°01' W 005°20'716.1
2017-Sep-12 20:30N 35°54' W 005°19'0 0.0
2017-Sep-12 20:00N 35°54' W 005°19'919.0
2017-Sep-12 19:31N 36°03' W 005°22'6 5.4
2017-Sep-12 18:22N 36°08' W 005°26'411.0
2017-Sep-12 18:00N 36°05' W 005°23'1223.3
2017-Sep-12 17:30N 35°54' W 005°19'0 0.4
2017-Sep-12 17:00N 35°54' W 005°19'3 5.9
2017-Sep-12 16:31N 35°57' W 005°19'1325.7
2017-Sep-12 15:59N 36°09' W 005°26'1 0.8
2017-Sep-12 15:12N 36°08' W 005°26'211.8
2017-Sep-12 15:01N 36°08' W 005°23'1326.8
2017-Sep-12 14:31N 35°55' W 005°19'1 2.3
2017-Sep-12 14:00N 35°54' W 005°19'3 5.0
2017-Sep-12 13:30N 35°56' W 005°18'1224.1
2017-Sep-12 13:00N 36°07' W 005°24'5 4.0
2017-Sep-12 11:40N 36°03' W 005°21'425.8
2017-Sep-12 11:31N 35°59' W 005°20'510.1
2017-Sep-12 11:00N 35°54' W 005°19'1 2.0
2017-Sep-12 10:31N 35°55' W 005°19'1224.2
2017-Sep-12 10:00N 36°06' W 005°23'0 0.2
2017-Sep-12 08:12N 36°06' W 005°23'527.4
2017-Sep-12 08:01N 36°01' W 005°21'714.5
2017-Sep-12 07:30N 35°54' W 005°19'0 0.0
2017-Sep-12 07:00N 35°54' W 005°19'816.4
2017-Sep-12 06:31N 36°02' W 005°21'814.3
2017-Sep-12 05:59N 36°08' W 005°26'0 0.0
2017-Sep-12 03:13N 36°08' W 005°26'0 0.0
2017-Sep-12 02:57N 36°08' W 005°26'0 0.0
2017-Sep-11 22:45N 36°08' W 005°26'0 0.0
2017-Sep-11 21:49N 36°08' W 005°26'1 2.7
2017-Sep-11 21:31N 36°09' W 005°26'1020.6
2017-Sep-11 21:01N 35°59' W 005°20'611.7
2017-Sep-11 20:30N 35°54' W 005°19'1 1.4
2017-Sep-11 20:01N 35°54' W 005°19'1427.8
2017-Sep-11 19:31N 36°07' W 005°24'2 1.9
2017-Sep-11 18:22N 36°09' W 005°26'820.5
2017-Sep-11 17:57N 36°01' W 005°21'817.3
2017-Sep-11 17:30N 35°54' W 005°19'0 0.0
2017-Sep-11 17:00N 35°54' W 005°19'0 0.0
2017-Sep-11 16:30N 35°54' W 005°19'1320.9
2017-Sep-11 15:53N 36°06' W 005°23'2 1.5
2017-Sep-11 14:32N 36°04' W 005°22'528.7
2017-Sep-11 14:21N 35°60' W 005°20'617.6
2017-Sep-11 14:00N 35°54' W 005°19'0 0.3
2017-Sep-11 13:30N 35°54' W 005°19'1529.6
2017-Sep-11 13:01N 36°08' W 005°24'8 6.6
2017-Sep-11 11:47N 36°00' W 005°21'724.5
2017-Sep-11 11:31N 35°54' W 005°19'0 0.9
2017-Sep-11 11:00N 35°54' W 005°19'7 2.9
2017-Sep-11 08:28N 36°01' W 005°20'716.2
2017-Sep-11 08:01N 35°54' W 005°19'0 0.0
2017-Sep-11 07:31N 35°54' W 005°19'0 0.0
2017-Sep-11 07:01N 35°54' W 005°19'15 1.7
2017-Sep-10 21:57N 36°08' W 005°26'510.6
2017-Sep-10 21:30N 36°05' W 005°22'1122.8
2017-Sep-10 21:00N 35°54' W 005°19'  
Track history (hours):
 
Tides and Currents Weather Stations Pressure Air Temp Water Temp Dewpoint Dewpoint Depression Visibility Wind Speed Wind Dir Waves Ship Positions

Milenium Dos

Last reported at 2017-Sep-20 21:00 UTC. Time now 2017-Sep-20 22:11 UTC.
Position N 36°05' W 005°22'.

Length 97 m; draft 2.7 m.

Type: Passenger vessel. MMSI: 224239000.

Date/timePositionNaut miles runAvg speedWind from/ knotsBaromVisibWave heightAir tempDewpointWater temp
2017-Sep-20 21:00N 36°05' W 005°22'1122.8
2017-Sep-20 20:30N 35°54' W 005°19'0 0.0
2017-Sep-20 20:00N 35°54' W 005°19'918.8
2017-Sep-20 19:30N 36°03' W 005°23'3 1.5
2017-Sep-20 17:39N 36°00' W 005°21'427.8
2017-Sep-20 17:31N 35°57' W 005°20'3 5.9
2017-Sep-20 17:00N 35°54' W 005°19'0 0.1
2017-Sep-20 16:30N 35°54' W 005°19'0 0.1
2017-Sep-20 14:00N 35°54' W 005°19'0 0.4
2017-Sep-20 13:31N 35°54' W 005°19'9 4.3
2017-Sep-20 11:32N 36°02' W 005°20'126.5
2017-Sep-20 11:30N 36°01' W 005°20'815.8
2017-Sep-20 11:01N 35°54' W 005°19'0 0.3
2017-Sep-20 10:30N 35°54' W 005°19'6 2.5
2017-Sep-20 08:01N 35°60' W 005°20'027.7
2017-Sep-20 08:00N 35°60' W 005°20'612.4
2017-Sep-20 07:30N 35°54' W 005°19'0 0.0
2017-Sep-20 07:00N 35°54' W 005°19'815.5
2017-Sep-20 06:30N 36°01' W 005°21'9 0.9
2017-Sep-19 21:10N 36°09' W 005°26'725.5
2017-Sep-19 20:53N 36°03' W 005°21'924.7
2017-Sep-19 20:31N 35°54' W 005°19'0 0.0
2017-Sep-19 20:00N 35°54' W 005°19'1122.1
2017-Sep-19 19:30N 36°04' W 005°23'4 3.5
2017-Sep-19 18:15N 36°08' W 005°26'2 7.5
2017-Sep-19 18:01N 36°08' W 005°24'1326.5
2017-Sep-19 17:31N 35°55' W 005°19'2 3.2
2017-Sep-19 17:00N 35°54' W 005°19'0 0.0
2017-Sep-19 16:30N 35°54' W 005°19'918.7
2017-Sep-19 16:00N 36°03' W 005°22'3 2.2
2017-Sep-19 14:38N 36°06' W 005°23'527.8
2017-Sep-19 14:28N 36°01' W 005°21'816.4
2017-Sep-19 14:00N 35°54' W 005°19'0 0.4
2017-Sep-19 13:31N 35°54' W 005°19'10 5.5
2017-Sep-19 11:39N 36°04' W 005°22'427.3
2017-Sep-19 11:30N 35°60' W 005°21'612.9
2017-Sep-19 11:00N 35°54' W 005°19'1 2.7
2017-Sep-19 10:30N 35°55' W 005°18'6 2.6
2017-Sep-19 08:00N 36°01' W 005°21'714.8
2017-Sep-19 07:30N 35°54' W 005°19'0 0.0
2017-Sep-19 07:00N 35°54' W 005°19'613.0
2017-Sep-19 06:30N 36°00' W 005°20'3 0.3
2017-Sep-18 21:05N 36°03' W 005°22'233.3
2017-Sep-18 21:01N 36°00' W 005°21'713.3
2017-Sep-18 20:30N 35°54' W 005°19'0 0.1
2017-Sep-18 20:01N 35°54' W 005°19'8 3.5
2017-Sep-18 17:45N 36°01' W 005°21'726.4
2017-Sep-18 17:31N 35°55' W 005°19'1 3.0
2017-Sep-18 17:01N 35°54' W 005°19'0 0.0
2017-Sep-18 16:31N 35°54' W 005°19'8 4.0
2017-Sep-18 14:30N 36°01' W 005°22'816.6
2017-Sep-18 14:00N 35°54' W 005°19'1 1.2
2017-Sep-18 13:30N 35°54' W 005°19'6 3.3
2017-Sep-18 11:38N 35°60' W 005°21'325.3
2017-Sep-18 11:31N 35°57' W 005°19'3 6.2
2017-Sep-18 11:00N 35°54' W 005°19'1 1.6
2017-Sep-18 10:31N 35°54' W 005°18'6 2.7
2017-Sep-18 08:12N 36°00' W 005°21'525.4
2017-Sep-18 08:01N 35°56' W 005°19'2 4.2
2017-Sep-18 07:30N 35°54' W 005°19'0 0.0
2017-Sep-18 07:00N 35°54' W 005°19'611.1
2017-Sep-18 06:31N 35°59' W 005°20'2 0.2
2017-Sep-17 21:14N 36°01' W 005°21'627.3
2017-Sep-17 21:01N 35°55' W 005°19'1 2.8
2017-Sep-17 20:30N 35°54' W 005°19'0 0.6
2017-Sep-17 20:01N 35°54' W 005°19'8 3.7
2017-Sep-17 17:52N 36°01' W 005°21'821.5
2017-Sep-17 17:30N 35°54' W 005°19'0 0.3
2017-Sep-17 17:00N 35°54' W 005°19'0 0.2
2017-Sep-17 16:31N 35°54' W 005°19'1020.3
2017-Sep-17 16:00N 36°04' W 005°22'6 4.6
2017-Sep-17 14:45N 36°09' W 005°26'922.1
2017-Sep-17 14:21N 36°01' W 005°21'721.4
2017-Sep-17 14:00N 35°54' W 005°19'0 0.3
2017-Sep-17 13:30N 35°54' W 005°19'10 5.0
2017-Sep-17 11:34N 36°03' W 005°23'327.0
2017-Sep-17 11:28N 36°00' W 005°22'714.7
2017-Sep-17 11:00N 35°54' W 005°19'0 0.1
2017-Sep-17 10:30N 35°54' W 005°19'7 2.7
2017-Sep-17 08:00N 36°00' W 005°22'713.6
2017-Sep-17 07:30N 35°54' W 005°19'0 0.0
2017-Sep-17 07:00N 35°54' W 005°19'3 6.5
2017-Sep-17 06:31N 35°57' W 005°19'8 0.9
2017-Sep-16 21:11N 36°04' W 005°23'633.5
2017-Sep-16 21:01N 35°59' W 005°21'510.2
2017-Sep-16 20:30N 35°54' W 005°19'0 0.3
2017-Sep-16 20:00N 35°54' W 005°19'1121.2
2017-Sep-16 19:30N 36°04' W 005°23'1 0.5
2017-Sep-16 17:55N 36°03' W 005°22'1024.4
2017-Sep-16 17:31N 35°54' W 005°19'1 1.2
2017-Sep-16 17:00N 35°54' W 005°19'0 0.0
2017-Sep-16 16:30N 35°54' W 005°19'1019.6
2017-Sep-16 16:00N 36°03' W 005°21'1 0.5
2017-Sep-16 14:36N 36°03' W 005°22'328.5
2017-Sep-16 14:31N 36°01' W 005°22'714.7
2017-Sep-16 14:00N 35°54' W 005°19'0 0.0
2017-Sep-16 13:30N 35°54' W 005°19'1019.3
2017-Sep-16 13:00N 36°03' W 005°23'3 1.8
2017-Sep-16 11:27N 36°00' W 005°21'715.2
2017-Sep-16 11:00N 35°54' W 005°19'0 0.4
2017-Sep-16 10:30N 35°54' W 005°19'7 3.1
2017-Sep-16 08:11N 36°01' W 005°22'526.4
2017-Sep-16 08:01N 35°56' W 005°20'2 4.9
2017-Sep-16 07:30N 35°54' W 005°19'0 0.1
2017-Sep-16 07:00N 35°54' W 005°19'11 1.1
2017-Sep-15 21:04N 36°04' W 005°22'227.7
2017-Sep-15 21:00N 36°03' W 005°21'918.6
2017-Sep-15 20:30N 35°54' W 005°19'0 0.1
2017-Sep-15 20:01N 35°54' W 005°19'1121.2
2017-Sep-15 19:30N 36°04' W 005°22'3 1.5
2017-Sep-15 17:49N 36°01' W 005°22'826.1
2017-Sep-15 17:31N 35°54' W 005°19'1 1.2
2017-Sep-15 17:00N 35°54' W 005°19'2 4.0
2017-Sep-15 16:31N 35°56' W 005°18'5 2.5
2017-Sep-15 14:38N 35°60' W 005°21'325.0
2017-Sep-15 14:31N 35°57' W 005°20'3 7.0
2017-Sep-15 14:00N 35°54' W 005°19'0 0.5
2017-Sep-15 13:31N 35°54' W 005°19'8 4.2
2017-Sep-15 11:41N 36°01' W 005°21'426.1
2017-Sep-15 11:31N 35°57' W 005°20'3 6.5
2017-Sep-15 11:00N 35°54' W 005°19'1 2.3
2017-Sep-15 10:31N 35°55' W 005°18'6 2.3
2017-Sep-15 07:58N 36°00' W 005°21'614.3
2017-Sep-15 07:30N 35°54' W 005°19'0 0.3
2017-Sep-15 07:00N 35°54' W 005°19'7 0.7
2017-Sep-14 21:05N 36°01' W 005°21'227.6
2017-Sep-14 21:00N 35°58' W 005°20'5 9.6
2017-Sep-14 20:30N 35°54' W 005°19'0 0.1
2017-Sep-14 20:01N 35°54' W 005°19'6 2.7
2017-Sep-14 17:45N 35°60' W 005°20'625.1
2017-Sep-14 17:30N 35°54' W 005°19'1 1.2
2017-Sep-14 17:00N 35°54' W 005°19'0 0.2
2017-Sep-14 16:30N 35°54' W 005°19'1221.8
2017-Sep-14 15:59N 36°05' W 005°23'4 2.9
2017-Sep-14 14:27N 36°01' W 005°20'817.2
2017-Sep-14 14:00N 35°54' W 005°19'0 0.0
2017-Sep-14 13:30N 35°54' W 005°19'1610.1
2017-Sep-14 11:56N 36°09' W 005°26'1020.0
2017-Sep-14 11:26N 35°60' W 005°20'614.1
2017-Sep-14 11:00N 35°54' W 005°19'0 0.7
2017-Sep-14 10:31N 35°54' W 005°19'7 2.6
2017-Sep-14 07:55N 36°00' W 005°21'716.5
2017-Sep-14 07:30N 35°54' W 005°19'0 0.0
2017-Sep-14 07:00N 35°54' W 005°19'713.8
2017-Sep-14 06:31N 36°01' W 005°20'1 0.1
2017-Sep-13 21:03N 36°01' W 005°21'127.9
2017-Sep-13 21:01N 36°00' W 005°21'713.5
2017-Sep-13 20:30N 35°54' W 005°19'0 0.4
2017-Sep-13 20:00N 35°54' W 005°19'10 5.1
2017-Sep-13 18:04N 36°03' W 005°23'227.4
2017-Sep-13 18:00N 36°01' W 005°22'815.9
2017-Sep-13 17:30N 35°54' W 005°19'0 0.0
2017-Sep-13 17:00N 35°54' W 005°19'0 0.2
2017-Sep-13 16:31N 35°54' W 005°19'7 3.6
2017-Sep-13 14:28N 36°01' W 005°21'716.3
2017-Sep-13 14:00N 35°54' W 005°19'0 0.5
2017-Sep-13 13:31N 35°54' W 005°19'7 3.4
2017-Sep-13 11:32N 35°60' W 005°22'128.1
2017-Sep-13 11:30N 35°59' W 005°22'611.8
2017-Sep-13 11:00N 35°54' W 005°19'0 0.3
2017-Sep-13 10:31N 35°54' W 005°19'7 2.9
2017-Sep-13 08:02N 36°01' W 005°22'028.1
2017-Sep-13 08:01N 36°00' W 005°22'713.6
2017-Sep-13 07:30N 35°54' W 005°19'0 0.0
2017-Sep-13 07:00N 35°54' W 005°19'816.8
2017-Sep-13 06:30N 36°02' W 005°22'7 1.1
2017-Sep-13 00:10N 36°08' W 005°26'1 0.3
2017-Sep-12 21:24N 36°08' W 005°26'919.9
2017-Sep-12 20:57N 36°01' W 005°20'716.1
2017-Sep-12 20:30N 35°54' W 005°19'0 0.0
2017-Sep-12 20:00N 35°54' W 005°19'919.0
2017-Sep-12 19:31N 36°03' W 005°22'6 5.4
2017-Sep-12 18:22N 36°08' W 005°26'411.0
2017-Sep-12 18:00N 36°05' W 005°23'1223.3
2017-Sep-12 17:30N 35°54' W 005°19'0 0.4
2017-Sep-12 17:00N 35°54' W 005°19'3 5.9
2017-Sep-12 16:31N 35°57' W 005°19'1325.7
2017-Sep-12 15:59N 36°09' W 005°26'1 0.8
2017-Sep-12 15:12N 36°08' W 005°26'211.8
2017-Sep-12 15:01N 36°08' W 005°23'1326.8
2017-Sep-12 14:31N 35°55' W 005°19'1 2.3
2017-Sep-12 14:00N 35°54' W 005°19'3 5.0
2017-Sep-12 13:30N 35°56' W 005°18'1224.1
2017-Sep-12 13:00N 36°07' W 005°24'5 4.0
2017-Sep-12 11:40N 36°03' W 005°21'425.8
2017-Sep-12 11:31N 35°59' W 005°20'510.1
2017-Sep-12 11:00N 35°54' W 005°19'1 2.0
2017-Sep-12 10:31N 35°55' W 005°19'1224.2
2017-Sep-12 10:00N 36°06' W 005°23'0 0.2
2017-Sep-12 08:12N 36°06' W 005°23'527.4
2017-Sep-12 08:01N 36°01' W 005°21'714.5
2017-Sep-12 07:30N 35°54' W 005°19'0 0.0
2017-Sep-12 07:00N 35°54' W 005°19'816.4
2017-Sep-12 06:31N 36°02' W 005°21'814.3
2017-Sep-12 05:59N 36°08' W 005°26'0 0.0
2017-Sep-12 03:13N 36°08' W 005°26'0 0.0
2017-Sep-12 02:57N 36°08' W 005°26'0 0.0
2017-Sep-11 22:45N 36°08' W 005°26'0 0.0
2017-Sep-11 21:49N 36°08' W 005°26'1 2.7
2017-Sep-11 21:31N 36°09' W 005°26'1020.6
2017-Sep-11 21:01N 35°59' W 005°20'611.7
2017-Sep-11 20:30N 35°54' W 005°19'1 1.4
2017-Sep-11 20:01N 35°54' W 005°19'1427.8
2017-Sep-11 19:31N 36°07' W 005°24'2 1.9
2017-Sep-11 18:22N 36°09' W 005°26'820.5
2017-Sep-11 17:57N 36°01' W 005°21'817.3
2017-Sep-11 17:30N 35°54' W 005°19'0 0.0
2017-Sep-11 17:00N 35°54' W 005°19'0 0.0
2017-Sep-11 16:30N 35°54' W 005°19'1320.9
2017-Sep-11 15:53N 36°06' W 005°23'2 1.5
2017-Sep-11 14:32N 36°04' W 005°22'528.7
2017-Sep-11 14:21N 35°60' W 005°20'617.6
2017-Sep-11 14:00N 35°54' W 005°19'0 0.3
2017-Sep-11 13:30N 35°54' W 005°19'1529.6
2017-Sep-11 13:01N 36°08' W 005°24'8 6.6
2017-Sep-11 11:47N 36°00' W 005°21'724.5
2017-Sep-11 11:31N 35°54' W 005°19'0 0.9
2017-Sep-11 11:00N 35°54' W 005°19'7 2.9
2017-Sep-11 08:28N 36°01' W 005°20'716.2
2017-Sep-11 08:01N 35°54' W 005°19'0 0.0
2017-Sep-11 07:31N 35°54' W 005°19'0 0.0
2017-Sep-11 07:01N 35°54' W 005°19'15 1.7
2017-Sep-10 21:57N 36°08' W 005°26'510.6
2017-Sep-10 21:30N 36°05' W 005°22'1122.8
2017-Sep-10 21:00N 35°54' W 005°19'  

Dump ship's entire track history